sensor_id;sensor_type;location;lat;lon;timestamp;temperature;humidity
38784;DHT22;24531;45.502;12.238;2023-08-07T00:00:33;22.20;94.90
38784;DHT22;24531;45.502;12.238;2023-08-07T00:02:59;22.20;94.90
38784;DHT22;24531;45.502;12.238;2023-08-07T00:05:24;22.20;95.00
38784;DHT22;24531;45.502;12.238;2023-08-07T00:07:50;22.20;95.00
38784;DHT22;24531;45.502;12.238;2023-08-07T00:10:16;22.20;94.90
38784;DHT22;24531;45.502;12.238;2023-08-07T00:12:41;22.20;94.90
38784;DHT22;24531;45.502;12.238;2023-08-07T00:15:09;22.20;94.90
38784;DHT22;24531;45.502;12.238;2023-08-07T00:17:35;22.20;95.00
38784;DHT22;24531;45.502;12.238;2023-08-07T00:20:01;22.20;95.00
38784;DHT22;24531;45.502;12.238;2023-08-07T00:22:26;22.20;95.00
38784;DHT22;24531;45.502;12.238;2023-08-07T00:24:52;22.10;95.00
38784;DHT22;24531;45.502;12.238;2023-08-07T00:27:17;22.10;95.10
38784;DHT22;24531;45.502;12.238;2023-08-07T00:29:43;22.10;95.10
38784;DHT22;24531;45.502;12.238;2023-08-07T00:32:09;22.20;95.10
38784;DHT22;24531;45.502;12.238;2023-08-07T00:34:34;22.10;95.10
38784;DHT22;24531;45.502;12.238;2023-08-07T00:37:00;22.10;95.20
38784;DHT22;24531;45.502;12.238;2023-08-07T00:39:26;22.10;95.20
38784;DHT22;24531;45.502;12.238;2023-08-07T00:41:51;22.10;95.20
38784;DHT22;24531;45.502;12.238;2023-08-07T00:44:17;22.10;95.30
38784;DHT22;24531;45.502;12.238;2023-08-07T00:49:10;21.90;99.90
38784;DHT22;24531;45.502;12.238;2023-08-07T00:56:32;21.90;99.90
38784;DHT22;24531;45.502;12.238;2023-08-07T00:59:01;21.80;95.50
38784;DHT22;24531;45.502;12.238;2023-08-07T01:01:27;21.80;95.60
38784;DHT22;24531;45.502;12.238;2023-08-07T01:03:54;21.80;95.60
38784;DHT22;24531;45.502;12.238;2023-08-07T01:06:20;21.80;95.60
38784;DHT22;24531;45.502;12.238;2023-08-07T01:08:46;21.70;95.50
38784;DHT22;24531;45.502;12.238;2023-08-07T01:14:20;21.80;96.00
38784;DHT22;24531;45.502;12.238;2023-08-07T01:17:16;21.90;95.60
38784;DHT22;24531;45.502;12.238;2023-08-07T01:19:44;21.80;95.50
38784;DHT22;24531;45.502;12.238;2023-08-07T01:22:15;21.90;95.40
38784;DHT22;24531;45.502;12.238;2023-08-07T01:24:43;21.80;95.40
38784;DHT22;24531;45.502;12.238;2023-08-07T01:27:20;21.80;95.50
38784;DHT22;24531;45.502;12.238;2023-08-07T01:35:29;21.70;95.60
38784;DHT22;24531;45.502;12.238;2023-08-07T01:37:57;21.80;95.60
38784;DHT22;24531;45.502;12.238;2023-08-07T01:40:24;21.80;95.90
38784;DHT22;24531;45.502;12.238;2023-08-07T01:42:50;21.80;95.50
38784;DHT22;24531;45.502;12.238;2023-08-07T01:45:26;21.80;95.60
38784;DHT22;24531;45.502;12.238;2023-08-07T01:47:53;21.80;95.60
38784;DHT22;24531;45.502;12.238;2023-08-07T01:50:19;21.80;95.60
38784;DHT22;24531;45.502;12.238;2023-08-07T01:52:47;21.80;95.70
38784;DHT22;24531;45.502;12.238;2023-08-07T02:00:23;21.80;95.90
38784;DHT22;24531;45.502;12.238;2023-08-07T02:02:49;21.70;96.00
38784;DHT22;24531;45.502;12.238;2023-08-07T02:07:50;21.70;96.30
38784;DHT22;24531;45.502;12.238;2023-08-07T02:10:15;21.70;96.10
38784;DHT22;24531;45.502;12.238;2023-08-07T02:12:41;21.70;96.10
38784;DHT22;24531;45.502;12.238;2023-08-07T02:15:07;21.70;96.20
38784;DHT22;24531;45.502;12.238;2023-08-07T02:17:33;21.60;96.20
38784;DHT22;24531;45.502;12.238;2023-08-07T02:19:59;21.60;96.20
38784;DHT22;24531;45.502;12.238;2023-08-07T02:22:24;21.60;96.30
38784;DHT22;24531;45.502;12.238;2023-08-07T02:24:50;21.70;96.40
38784;DHT22;24531;45.502;12.238;2023-08-07T02:27:16;21.70;96.40
38784;DHT22;24531;45.502;12.238;2023-08-07T02:29:41;21.70;96.50
38784;DHT22;24531;45.502;12.238;2023-08-07T02:32:07;21.70;96.40
38784;DHT22;24531;45.502;12.238;2023-08-07T02:34:33;21.60;96.40
38784;DHT22;24531;45.502;12.238;2023-08-07T02:36:59;21.60;96.40
38784;DHT22;24531;45.502;12.238;2023-08-07T02:39:25;21.50;96.50
38784;DHT22;24531;45.502;12.238;2023-08-07T02:41:51;21.50;96.50
38784;DHT22;24531;45.502;12.238;2023-08-07T02:44:16;21.50;96.50
38784;DHT22;24531;45.502;12.238;2023-08-07T02:46:46;21.50;96.60
38784;DHT22;24531;45.502;12.238;2023-08-07T02:49:12;21.50;96.60
38784;DHT22;24531;45.502;12.238;2023-08-07T02:51:37;21.50;96.60
38784;DHT22;24531;45.502;12.238;2023-08-07T02:54:03;21.50;96.60
38784;DHT22;24531;45.502;12.238;2023-08-07T02:56:29;21.50;96.60
38784;DHT22;24531;45.502;12.238;2023-08-07T02:58:55;21.50;96.60
38784;DHT22;24531;45.502;12.238;2023-08-07T03:01:23;21.40;97.00
38784;DHT22;24531;45.502;12.238;2023-08-07T03:03:49;21.30;96.70
38784;DHT22;24531;45.502;12.238;2023-08-07T03:06:14;21.30;96.80
38784;DHT22;24531;45.502;12.238;2023-08-07T03:08:40;21.30;96.80
38784;DHT22;24531;45.502;12.238;2023-08-07T03:11:05;21.30;96.80
38784;DHT22;24531;45.502;12.238;2023-08-07T03:13:31;21.30;96.80
38784;DHT22;24531;45.502;12.238;2023-08-07T03:16:01;21.20;96.90
38784;DHT22;24531;45.502;12.238;2023-08-07T03:18:27;21.30;97.10
38784;DHT22;24531;45.502;12.238;2023-08-07T03:20:54;21.20;96.90
38784;DHT22;24531;45.502;12.238;2023-08-07T03:23:21;21.20;97.00
38784;DHT22;24531;45.502;12.238;2023-08-07T03:25:47;21.20;97.10
38784;DHT22;24531;45.502;12.238;2023-08-07T03:28:12;21.20;97.10
38784;DHT22;24531;45.502;12.238;2023-08-07T03:30:38;21.20;97.20
38784;DHT22;24531;45.502;12.238;2023-08-07T03:33:03;21.20;97.20
38784;DHT22;24531;45.502;12.238;2023-08-07T03:35:30;21.20;97.20
38784;DHT22;24531;45.502;12.238;2023-08-07T03:37:55;21.20;97.30
38784;DHT22;24531;45.502;12.238;2023-08-07T03:40:21;21.20;97.30
38784;DHT22;24531;45.502;12.238;2023-08-07T03:42:46;21.10;97.30
38784;DHT22;24531;45.502;12.238;2023-08-07T03:45:13;21.10;97.30
38784;DHT22;24531;45.502;12.238;2023-08-07T03:47:38;21.00;97.40
38784;DHT22;24531;45.502;12.238;2023-08-07T03:50:05;21.00;97.50
38784;DHT22;24531;45.502;12.238;2023-08-07T03:52:30;21.00;97.50
38784;DHT22;24531;45.502;12.238;2023-08-07T03:54:56;21.00;97.50
38784;DHT22;24531;45.502;12.238;2023-08-07T03:57:22;21.00;97.50
38784;DHT22;24531;45.502;12.238;2023-08-07T03:59:47;21.00;97.50
38784;DHT22;24531;45.502;12.238;2023-08-07T04:02:13;20.90;97.50
38784;DHT22;24531;45.502;12.238;2023-08-07T04:04:39;20.90;97.60
38784;DHT22;24531;45.502;12.238;2023-08-07T04:07:04;20.90;97.60
38784;DHT22;24531;45.502;12.238;2023-08-07T04:09:31;20.90;97.50
38784;DHT22;24531;45.502;12.238;2023-08-07T04:11:56;20.90;97.60
38784;DHT22;24531;45.502;12.238;2023-08-07T04:14:22;20.90;97.60
38784;DHT22;24531;45.502;12.238;2023-08-07T04:16:48;20.90;97.60
38784;DHT22;24531;45.502;12.238;2023-08-07T04:19:13;20.90;97.50
38784;DHT22;24531;45.502;12.238;2023-08-07T04:21:39;20.90;97.50
38784;DHT22;24531;45.502;12.238;2023-08-07T04:24:04;20.90;97.50
38784;DHT22;24531;45.502;12.238;2023-08-07T04:26:36;20.90;97.70
38784;DHT22;24531;45.502;12.238;2023-08-07T04:29:02;20.90;97.70
38784;DHT22;24531;45.502;12.238;2023-08-07T04:31:28;20.90;97.70
38784;DHT22;24531;45.502;12.238;2023-08-07T04:33:56;20.90;97.80
38784;DHT22;24531;45.502;12.238;2023-08-07T04:36:22;20.90;97.80
38784;DHT22;24531;45.502;12.238;2023-08-07T04:38:47;21.00;97.80
38784;DHT22;24531;45.502;12.238;2023-08-07T04:41:13;21.00;97.80
38784;DHT22;24531;45.502;12.238;2023-08-07T04:43:39;20.90;97.70
38784;DHT22;24531;45.502;12.238;2023-08-07T04:46:04;20.90;97.80
38784;DHT22;24531;45.502;12.238;2023-08-07T04:48:30;20.90;97.80
38784;DHT22;24531;45.502;12.238;2023-08-07T04:50:56;20.90;98.10
38784;DHT22;24531;45.502;12.238;2023-08-07T04:53:23;20.90;97.80
38784;DHT22;24531;45.502;12.238;2023-08-07T04:58:24;21.00;97.90
38784;DHT22;24531;45.502;12.238;2023-08-07T05:00:57;21.00;97.90
38784;DHT22;24531;45.502;12.238;2023-08-07T05:03:24;21.10;97.90
38784;DHT22;24531;45.502;12.238;2023-08-07T05:05:50;21.10;97.90
38784;DHT22;24531;45.502;12.238;2023-08-07T05:08:16;21.10;98.00
38784;DHT22;24531;45.502;12.238;2023-08-07T05:10:42;21.10;98.00
38784;DHT22;24531;45.502;12.238;2023-08-07T05:13:07;21.20;98.30
38784;DHT22;24531;45.502;12.238;2023-08-07T05:15:33;21.20;98.00
38784;DHT22;24531;45.502;12.238;2023-08-07T05:17:58;21.30;98.00
38784;DHT22;24531;45.502;12.238;2023-08-07T05:20:24;21.40;97.90
38784;DHT22;24531;45.502;12.238;2023-08-07T05:22:50;21.40;97.90
38784;DHT22;24531;45.502;12.238;2023-08-07T05:25:16;21.40;98.00
38784;DHT22;24531;45.502;12.238;2023-08-07T05:27:43;21.50;97.90
38784;DHT22;24531;45.502;12.238;2023-08-07T05:30:09;21.50;97.90
38784;DHT22;24531;45.502;12.238;2023-08-07T05:32:35;21.50;97.90
38784;DHT22;24531;45.502;12.238;2023-08-07T05:35:04;21.60;97.90
38784;DHT22;24531;45.502;12.238;2023-08-07T05:37:30;21.70;97.90
38784;DHT22;24531;45.502;12.238;2023-08-07T05:39:57;21.70;97.80
38784;DHT22;24531;45.502;12.238;2023-08-07T05:42:23;21.80;97.80
38784;DHT22;24531;45.502;12.238;2023-08-07T05:44:49;21.80;97.80
38784;DHT22;24531;45.502;12.238;2023-08-07T05:47:14;21.90;97.70
38784;DHT22;24531;45.502;12.238;2023-08-07T05:49:40;21.90;97.70
38784;DHT22;24531;45.502;12.238;2023-08-07T05:52:07;22.00;97.70
38784;DHT22;24531;45.502;12.238;2023-08-07T05:54:33;22.00;97.70
38784;DHT22;24531;45.502;12.238;2023-08-07T05:56:58;22.00;97.70
38784;DHT22;24531;45.502;12.238;2023-08-07T05:59:24;22.20;97.70
38784;DHT22;24531;45.502;12.238;2023-08-07T06:01:50;22.20;97.60
38784;DHT22;24531;45.502;12.238;2023-08-07T06:04:16;22.20;97.50
38784;DHT22;24531;45.502;12.238;2023-08-07T06:06:42;22.30;97.40
38784;DHT22;24531;45.502;12.238;2023-08-07T06:09:08;22.40;97.30
38784;DHT22;24531;45.502;12.238;2023-08-07T06:11:34;22.40;97.30
38784;DHT22;24531;45.502;12.238;2023-08-07T06:14:00;22.50;97.10
38784;DHT22;24531;45.502;12.238;2023-08-07T06:16:25;22.50;97.00
38784;DHT22;24531;45.502;12.238;2023-08-07T06:18:51;22.60;97.00
38784;DHT22;24531;45.502;12.238;2023-08-07T06:21:17;22.70;97.00
38784;DHT22;24531;45.502;12.238;2023-08-07T06:23:43;22.80;96.90
38784;DHT22;24531;45.502;12.238;2023-08-07T06:26:08;23.00;96.70
38784;DHT22;24531;45.502;12.238;2023-08-07T06:28:34;23.10;96.40
38784;DHT22;24531;45.502;12.238;2023-08-07T06:31:10;23.30;96.40
38784;DHT22;24531;45.502;12.238;2023-08-07T06:33:36;23.40;96.20
38784;DHT22;24531;45.502;12.238;2023-08-07T06:36:07;23.50;96.10
38784;DHT22;24531;45.502;12.238;2023-08-07T06:38:36;23.70;96.10
38784;DHT22;24531;45.502;12.238;2023-08-07T06:41:02;23.80;95.50
38784;DHT22;24531;45.502;12.238;2023-08-07T06:43:28;23.80;95.30
38784;DHT22;24531;45.502;12.238;2023-08-07T06:45:55;24.00;96.70
38784;DHT22;24531;45.502;12.238;2023-08-07T06:48:20;24.30;99.90
38784;DHT22;24531;45.502;12.238;2023-08-07T06:50:47;24.60;94.90
38784;DHT22;24531;45.502;12.238;2023-08-07T06:53:13;24.90;94.50
38784;DHT22;24531;45.502;12.238;2023-08-07T06:55:38;25.20;94.30
38784;DHT22;24531;45.502;12.238;2023-08-07T06:58:06;25.20;93.90
38784;DHT22;24531;45.502;12.238;2023-08-07T07:00:31;25.10;93.70
38784;DHT22;24531;45.502;12.238;2023-08-07T07:02:57;25.10;93.90
38784;DHT22;24531;45.502;12.238;2023-08-07T07:05:23;25.50;93.60
38784;DHT22;24531;45.502;12.238;2023-08-07T07:07:48;26.10;93.40
38784;DHT22;24531;45.502;12.238;2023-08-07T07:10:14;26.60;92.80
38784;DHT22;24531;45.502;12.238;2023-08-07T07:12:40;26.90;92.40
38784;DHT22;24531;45.502;12.238;2023-08-07T07:15:06;27.10;92.20
38784;DHT22;24531;45.502;12.238;2023-08-07T07:17:31;27.20;91.90
38784;DHT22;24531;45.502;12.238;2023-08-07T07:19:57;27.30;91.60
38784;DHT22;24531;45.502;12.238;2023-08-07T07:22:23;27.30;91.50
38784;DHT22;24531;45.502;12.238;2023-08-07T07:24:49;27.30;91.50
38784;DHT22;24531;45.502;12.238;2023-08-07T07:27:14;27.40;91.20
38784;DHT22;24531;45.502;12.238;2023-08-07T07:29:40;27.40;91.00
38784;DHT22;24531;45.502;12.238;2023-08-07T07:32:06;27.50;90.90
38784;DHT22;24531;45.502;12.238;2023-08-07T07:34:32;27.60;90.50
38784;DHT22;24531;45.502;12.238;2023-08-07T07:36:58;27.60;90.30
38784;DHT22;24531;45.502;12.238;2023-08-07T07:41:58;27.90;90.10
38784;DHT22;24531;45.502;12.238;2023-08-07T07:44:23;27.90;89.40
38784;DHT22;24531;45.502;12.238;2023-08-07T07:46:49;28.00;89.10
38784;DHT22;24531;45.502;12.238;2023-08-07T07:49:15;28.10;88.50
38784;DHT22;24531;45.502;12.238;2023-08-07T07:51:41;28.20;88.50
38784;DHT22;24531;45.502;12.238;2023-08-07T07:54:08;28.30;88.40
38784;DHT22;24531;45.502;12.238;2023-08-07T07:56:33;28.40;87.70
38784;DHT22;24531;45.502;12.238;2023-08-07T07:58:59;28.50;87.60
38784;DHT22;24531;45.502;12.238;2023-08-07T08:01:24;28.60;87.20
38784;DHT22;24531;45.502;12.238;2023-08-07T08:03:50;28.60;87.20
38784;DHT22;24531;45.502;12.238;2023-08-07T08:06:16;28.70;86.70
38784;DHT22;24531;45.502;12.238;2023-08-07T08:08:42;28.80;85.60
38784;DHT22;24531;45.502;12.238;2023-08-07T08:11:08;28.80;84.70
38784;DHT22;24531;45.502;12.238;2023-08-07T08:13:34;28.90;84.30
38784;DHT22;24531;45.502;12.238;2023-08-07T08:16:04;29.20;84.20
38784;DHT22;24531;45.502;12.238;2023-08-07T08:18:30;29.50;83.40
38784;DHT22;24531;45.502;12.238;2023-08-07T08:20:56;29.70;82.80
38784;DHT22;24531;45.502;12.238;2023-08-07T08:23:21;29.90;82.40
38784;DHT22;24531;45.502;12.238;2023-08-07T08:25:48;30.20;81.70
38784;DHT22;24531;45.502;12.238;2023-08-07T08:28:14;30.40;80.70
38784;DHT22;24531;45.502;12.238;2023-08-07T08:30:40;30.90;80.50
38784;DHT22;24531;45.502;12.238;2023-08-07T08:33:05;31.40;79.20
38784;DHT22;24531;45.502;12.238;2023-08-07T08:35:31;32.00;77.40
38784;DHT22;24531;45.502;12.238;2023-08-07T08:37:57;32.70;75.80
38784;DHT22;24531;45.502;12.238;2023-08-07T08:40:24;33.40;73.80
38784;DHT22;24531;45.502;12.238;2023-08-07T08:42:50;34.20;72.30
38784;DHT22;24531;45.502;12.238;2023-08-07T08:45:20;34.90;70.40
38784;DHT22;24531;45.502;12.238;2023-08-07T08:47:46;35.30;68.50
38784;DHT22;24531;45.502;12.238;2023-08-07T08:50:14;35.70;68.30
38784;DHT22;24531;45.502;12.238;2023-08-07T08:52:44;36.30;67.10
38784;DHT22;24531;45.502;12.238;2023-08-07T08:55:12;36.90;64.50
38784;DHT22;24531;45.502;12.238;2023-08-07T08:57:38;37.40;63.50
38784;DHT22;24531;45.502;12.238;2023-08-07T09:00:06;38.00;88.30
38784;DHT22;24531;45.502;12.238;2023-08-07T09:18:56;40.20;55.60
38784;DHT22;24531;45.502;12.238;2023-08-07T09:29:07;41.40;52.30
38784;DHT22;24531;45.502;12.238;2023-08-07T09:31:36;41.60;51.20
38784;DHT22;24531;45.502;12.238;2023-08-07T09:41:51;42.40;48.10
38784;DHT22;24531;45.502;12.238;2023-08-07T09:44:17;42.30;47.20
38784;DHT22;24531;45.502;12.238;2023-08-07T09:46:45;42.40;46.90
38784;DHT22;24531;45.502;12.238;2023-08-07T10:20:15;39.50;42.80
38784;DHT22;24531;45.502;12.238;2023-08-07T10:22:42;38.70;44.20
38784;DHT22;24531;45.502;12.238;2023-08-07T10:25:09;38.10;44.80
38784;DHT22;24531;45.502;12.238;2023-08-07T10:30:12;37.00;45.20
38784;DHT22;24531;45.502;12.238;2023-08-07T10:32:40;36.60;45.20
38784;DHT22;24531;45.502;12.238;2023-08-07T10:35:07;36.10;45.00
38784;DHT22;24531;45.502;12.238;2023-08-07T10:37:44;35.70;45.80
38784;DHT22;24531;45.502;12.238;2023-08-07T10:40:11;35.30;45.70
38784;DHT22;24531;45.502;12.238;2023-08-07T10:45:34;34.70;46.60
38784;DHT22;24531;45.502;12.238;2023-08-07T10:48:08;34.50;46.40
38784;DHT22;24531;45.502;12.238;2023-08-07T10:53:33;34.40;47.30
38784;DHT22;24531;45.502;12.238;2023-08-07T10:56:09;34.40;47.10
38784;DHT22;24531;45.502;12.238;2023-08-07T10:58:37;34.20;46.50
38784;DHT22;24531;45.502;12.238;2023-08-07T11:01:26;34.10;46.10
38784;DHT22;24531;45.502;12.238;2023-08-07T11:04:00;34.00;47.00
38784;DHT22;24531;45.502;12.238;2023-08-07T11:06:34;34.00;46.10
38784;DHT22;24531;45.502;12.238;2023-08-07T11:09:04;33.90;46.40
38784;DHT22;24531;45.502;12.238;2023-08-07T11:11:44;33.90;46.30
38784;DHT22;24531;45.502;12.238;2023-08-07T11:14:16;33.80;45.70
38784;DHT22;24531;45.502;12.238;2023-08-07T11:16:44;33.60;45.90
38784;DHT22;24531;45.502;12.238;2023-08-07T11:19:10;33.60;46.10
38784;DHT22;24531;45.502;12.238;2023-08-07T11:21:37;33.50;46.10
38784;DHT22;24531;45.502;12.238;2023-08-07T11:24:03;33.60;46.50
38784;DHT22;24531;45.502;12.238;2023-08-07T11:26:29;33.60;46.30
38784;DHT22;24531;45.502;12.238;2023-08-07T11:28:55;33.50;45.40
38784;DHT22;24531;45.502;12.238;2023-08-07T11:31:22;33.30;45.20
38784;DHT22;24531;45.502;12.238;2023-08-07T11:33:56;33.40;45.40
38784;DHT22;24531;45.502;12.238;2023-08-07T11:36:23;33.50;45.30
38784;DHT22;24531;45.502;12.238;2023-08-07T11:38:50;33.60;44.70
38784;DHT22;24531;45.502;12.238;2023-08-07T11:41:17;33.40;44.10
38784;DHT22;24531;45.502;12.238;2023-08-07T11:43:43;33.30;43.90
38784;DHT22;24531;45.502;12.238;2023-08-07T11:46:11;33.20;43.90
38784;DHT22;24531;45.502;12.238;2023-08-07T11:48:39;33.10;44.30
38784;DHT22;24531;45.502;12.238;2023-08-07T11:51:05;33.00;44.80
38784;DHT22;24531;45.502;12.238;2023-08-07T11:53:33;33.00;45.20
38784;DHT22;24531;45.502;12.238;2023-08-07T11:56:10;33.10;45.20
38784;DHT22;24531;45.502;12.238;2023-08-07T11:58:40;33.10;44.70
38784;DHT22;24531;45.502;12.238;2023-08-07T12:01:09;33.10;44.70
38784;DHT22;24531;45.502;12.238;2023-08-07T12:03:36;33.20;45.70
38784;DHT22;24531;45.502;12.238;2023-08-07T12:06:04;33.30;45.50
38784;DHT22;24531;45.502;12.238;2023-08-07T12:08:32;33.40;44.80
38784;DHT22;24531;45.502;12.238;2023-08-07T12:11:01;33.40;44.80
38784;DHT22;24531;45.502;12.238;2023-08-07T12:13:27;33.40;44.90
38784;DHT22;24531;45.502;12.238;2023-08-07T12:15:57;33.50;44.90
38784;DHT22;24531;45.502;12.238;2023-08-07T12:18:24;33.30;43.90
38784;DHT22;24531;45.502;12.238;2023-08-07T12:21:01;33.10;43.20
38784;DHT22;24531;45.502;12.238;2023-08-07T12:23:27;33.10;42.90
38784;DHT22;24531;45.502;12.238;2023-08-07T12:25:53;33.20;43.10
38784;DHT22;24531;45.502;12.238;2023-08-07T12:28:19;33.20;43.30
38784;DHT22;24531;45.502;12.238;2023-08-07T12:30:46;33.30;43.50
38784;DHT22;24531;45.502;12.238;2023-08-07T12:33:12;33.30;42.90
38784;DHT22;24531;45.502;12.238;2023-08-07T12:35:38;33.30;42.40
38784;DHT22;24531;45.502;12.238;2023-08-07T12:38:04;33.30;41.80
38784;DHT22;24531;45.502;12.238;2023-08-07T12:40:30;33.30;41.60
38784;DHT22;24531;45.502;12.238;2023-08-07T12:42:57;33.30;41.70
38784;DHT22;24531;45.502;12.238;2023-08-07T12:45:23;33.30;42.30
38784;DHT22;24531;45.502;12.238;2023-08-07T13:31:29;33.50;42.40
38784;DHT22;24531;45.502;12.238;2023-08-07T13:33:57;33.50;41.90
38784;DHT22;24531;45.502;12.238;2023-08-07T13:36:23;33.40;42.10
38784;DHT22;24531;45.502;12.238;2023-08-07T13:38:57;33.40;41.90
38784;DHT22;24531;45.502;12.238;2023-08-07T13:41:25;33.40;41.20
38784;DHT22;24531;45.502;12.238;2023-08-07T13:43:51;33.40;41.90
38784;DHT22;24531;45.502;12.238;2023-08-07T13:46:16;33.50;41.90
38784;DHT22;24531;45.502;12.238;2023-08-07T13:48:44;33.50;41.60
38784;DHT22;24531;45.502;12.238;2023-08-07T13:51:10;33.60;41.90
38784;DHT22;24531;45.502;12.238;2023-08-07T13:53:35;33.60;41.90
38784;DHT22;24531;45.502;12.238;2023-08-07T13:56:01;33.70;42.00
38784;DHT22;24531;45.502;12.238;2023-08-07T13:58:27;33.70;41.50
38784;DHT22;24531;45.502;12.238;2023-08-07T14:00:53;33.60;41.70
38784;DHT22;24531;45.502;12.238;2023-08-07T14:03:19;33.60;41.90
38784;DHT22;24531;45.502;12.238;2023-08-07T14:05:45;33.70;41.50
38784;DHT22;24531;45.502;12.238;2023-08-07T14:08:10;33.70;40.90
38784;DHT22;24531;45.502;12.238;2023-08-07T14:10:36;33.60;41.00
38784;DHT22;24531;45.502;12.238;2023-08-07T14:13:04;33.60;41.00
38784;DHT22;24531;45.502;12.238;2023-08-07T14:15:30;33.60;40.60
38784;DHT22;24531;45.502;12.238;2023-08-07T14:17:56;33.60;40.30
38784;DHT22;24531;45.502;12.238;2023-08-07T14:20:23;33.60;40.00
38784;DHT22;24531;45.502;12.238;2023-08-07T14:22:49;33.60;40.00
38784;DHT22;24531;45.502;12.238;2023-08-07T14:25:15;33.50;40.10
38784;DHT22;24531;45.502;12.238;2023-08-07T14:27:41;33.60;40.70
38784;DHT22;24531;45.502;12.238;2023-08-07T14:30:07;33.60;41.50
38784;DHT22;24531;45.502;12.238;2023-08-07T14:32:33;33.60;42.00
38784;DHT22;24531;45.502;12.238;2023-08-07T14:34:58;33.60;42.60
38784;DHT22;24531;45.502;12.238;2023-08-07T14:37:24;33.50;42.60
38784;DHT22;24531;45.502;12.238;2023-08-07T14:39:50;33.50;43.20
38784;DHT22;24531;45.502;12.238;2023-08-07T14:42:15;33.60;42.70
38784;DHT22;24531;45.502;12.238;2023-08-07T14:44:41;33.60;42.70
38784;DHT22;24531;45.502;12.238;2023-08-07T14:47:07;33.60;42.10
38784;DHT22;24531;45.502;12.238;2023-08-07T14:49:32;33.60;41.10
38784;DHT22;24531;45.502;12.238;2023-08-07T14:51:58;33.70;41.40
38784;DHT22;24531;45.502;12.238;2023-08-07T14:54:23;33.70;41.30
38784;DHT22;24531;45.502;12.238;2023-08-07T14:56:49;33.80;41.70
38784;DHT22;24531;45.502;12.238;2023-08-07T14:59:17;33.90;41.40
38784;DHT22;24531;45.502;12.238;2023-08-07T15:01:42;33.90;41.50
38784;DHT22;24531;45.502;12.238;2023-08-07T15:04:08;34.00;41.80
38784;DHT22;24531;45.502;12.238;2023-08-07T15:06:35;34.00;42.50
38784;DHT22;24531;45.502;12.238;2023-08-07T15:09:00;33.80;42.50
38784;DHT22;24531;45.502;12.238;2023-08-07T15:11:26;33.60;42.90
38784;DHT22;24531;45.502;12.238;2023-08-07T15:13:52;33.40;43.30
38784;DHT22;24531;45.502;12.238;2023-08-07T15:16:17;33.20;43.30
38784;DHT22;24531;45.502;12.238;2023-08-07T15:18:43;33.20;43.20
38784;DHT22;24531;45.502;12.238;2023-08-07T15:21:08;33.10;43.40
38784;DHT22;24531;45.502;12.238;2023-08-07T15:23:36;32.90;44.80
38784;DHT22;24531;45.502;12.238;2023-08-07T15:26:01;32.70;43.80
38784;DHT22;24531;45.502;12.238;2023-08-07T15:28:27;32.30;43.00
38784;DHT22;24531;45.502;12.238;2023-08-07T15:30:53;31.90;42.90
38784;DHT22;24531;45.502;12.238;2023-08-07T15:33:19;31.70;42.70
38784;DHT22;24531;45.502;12.238;2023-08-07T15:35:44;31.40;42.30
38784;DHT22;24531;45.502;12.238;2023-08-07T15:38:11;31.40;42.90
38784;DHT22;24531;45.502;12.238;2023-08-07T15:40:38;31.40;43.60
38784;DHT22;24531;45.502;12.238;2023-08-07T15:43:04;31.40;44.10
38784;DHT22;24531;45.502;12.238;2023-08-07T15:45:30;31.60;45.00
38784;DHT22;24531;45.502;12.238;2023-08-07T15:47:56;31.70;45.60
38784;DHT22;24531;45.502;12.238;2023-08-07T15:50:21;31.70;45.90
38784;DHT22;24531;45.502;12.238;2023-08-07T15:52:48;31.70;45.70
38784;DHT22;24531;45.502;12.238;2023-08-07T15:55:13;31.60;45.50
38784;DHT22;24531;45.502;12.238;2023-08-07T15:57:39;31.50;46.40
38784;DHT22;24531;45.502;12.238;2023-08-07T16:00:06;31.50;46.50
38784;DHT22;24531;45.502;12.238;2023-08-07T16:02:44;31.50;46.30
38784;DHT22;24531;45.502;12.238;2023-08-07T16:05:32;31.40;45.80
38784;DHT22;24531;45.502;12.238;2023-08-07T16:08:05;31.40;45.40
38784;DHT22;24531;45.502;12.238;2023-08-07T16:10:37;31.30;46.40
38784;DHT22;24531;45.502;12.238;2023-08-07T16:13:03;31.20;46.40
38784;DHT22;24531;45.502;12.238;2023-08-07T16:15:44;31.20;45.90
38784;DHT22;24531;45.502;12.238;2023-08-07T16:18:47;31.10;45.90
38784;DHT22;24531;45.502;12.238;2023-08-07T16:21:19;31.00;45.70
38784;DHT22;24531;45.502;12.238;2023-08-07T16:27:15;30.90;46.50
38784;DHT22;24531;45.502;12.238;2023-08-07T16:30:16;30.90;47.00
38784;DHT22;24531;45.502;12.238;2023-08-07T16:32:41;30.80;46.40
38784;DHT22;24531;45.502;12.238;2023-08-07T16:35:29;30.70;46.70
38784;DHT22;24531;45.502;12.238;2023-08-07T16:37:57;30.70;47.40
38784;DHT22;24531;45.502;12.238;2023-08-07T16:40:23;30.60;47.40
38784;DHT22;24531;45.502;12.238;2023-08-07T16:42:57;30.60;47.90
38784;DHT22;24531;45.502;12.238;2023-08-07T16:45:23;30.50;47.00
38784;DHT22;24531;45.502;12.238;2023-08-07T16:47:50;30.40;47.40
38784;DHT22;24531;45.502;12.238;2023-08-07T16:50:16;30.40;47.70
38784;DHT22;24531;45.502;12.238;2023-08-07T16:52:41;30.20;47.50
38784;DHT22;24531;45.502;12.238;2023-08-07T16:55:07;30.10;48.40
38784;DHT22;24531;45.502;12.238;2023-08-07T16:57:33;30.10;49.20
38784;DHT22;24531;45.502;12.238;2023-08-07T16:59:59;30.00;49.60
38784;DHT22;24531;45.502;12.238;2023-08-07T17:02:24;29.90;49.70
38784;DHT22;24531;45.502;12.238;2023-08-07T17:04:50;29.90;50.20
38784;DHT22;24531;45.502;12.238;2023-08-07T17:07:16;29.80;50.30
38784;DHT22;24531;45.502;12.238;2023-08-07T17:09:41;29.80;49.70
38784;DHT22;24531;45.502;12.238;2023-08-07T17:12:07;29.70;48.70
38784;DHT22;24531;45.502;12.238;2023-08-07T17:14:33;29.70;48.50
38784;DHT22;24531;45.502;12.238;2023-08-07T17:16:59;29.60;49.10
38784;DHT22;24531;45.502;12.238;2023-08-07T17:19:24;29.60;48.90
38784;DHT22;24531;45.502;12.238;2023-08-07T17:21:50;29.50;48.40
38784;DHT22;24531;45.502;12.238;2023-08-07T17:24:15;29.50;48.80
38784;DHT22;24531;45.502;12.238;2023-08-07T17:26:41;29.50;48.20
38784;DHT22;24531;45.502;12.238;2023-08-07T17:29:07;29.50;49.00
38784;DHT22;24531;45.502;12.238;2023-08-07T17:31:32;29.50;50.00
38784;DHT22;24531;45.502;12.238;2023-08-07T17:43:48;29.20;52.40
38784;DHT22;24531;45.502;12.238;2023-08-07T17:46:13;29.20;53.00
38784;DHT22;24531;45.502;12.238;2023-08-07T17:48:48;29.20;52.90
38784;DHT22;24531;45.502;12.238;2023-08-07T17:51:16;29.10;53.30